Time;durP1;ratioP1;P1;durP2;ratioP2;P2;SDS_P1;SDS_P2;PMS_P1;PMS_P2;Temp;Humidity;BMP_temperature;BMP_pressure;BME280_temperature;BME280_humidity;BME280_pressure;Samples;Min_cycle;Max_cycle;Signal;HPM_P1;HPM_P2
2023/02/04 00:02:56;;;;;;;14.50;3.25;;;;;;;5.58;100.00;102527.19;6227125;28;20061;-74
2023/02/04 00:05:58;;;;;;;19.15;3.08;;;;;;;5.54;100.00;102544.63;6221219;28;20446;-73
2023/02/04 00:08:59;;;;;;;9.98;1.50;;;;;;;5.40;100.00;102543.78;6202414;28;20054;-73
2023/02/04 00:12:00;;;;;;;6.50;0.85;;;;;;;5.47;100.00;102550.72;6202987;28;20054;-73
2023/02/04 00:15:03;;;;;;;14.98;1.50;;;;;;;5.44;100.00;102547.25;6202248;28;20054;-73
2023/02/04 00:18:06;;;;;;;3.65;0.68;;;;;;;5.42;100.00;102549.00;6203429;28;20054;-73
2023/02/04 00:21:07;;;;;;;4.25;0.50;;;;;;;5.40;100.00;102549.00;6202115;28;20054;-73
2023/02/04 00:24:08;;;;;;;3.40;1.15;;;;;;;5.35;100.00;102555.97;6202341;28;20054;-73
2023/02/04 00:27:10;;;;;;;13.90;0.98;;;;;;;5.26;100.00;102553.38;6202048;28;20337;-73
2023/02/04 00:30:14;;;;;;;4.57;1.48;;;;;;;5.24;100.00;102566.41;6201787;28;20054;-73
2023/02/04 00:33:15;;;;;;;3.58;1.10;;;;;;;5.17;100.00;102572.50;6203330;28;20046;-73
2023/02/04 00:36:16;;;;;;;5.85;0.60;;;;;;;5.21;100.00;102587.28;6201794;28;20047;-73
2023/02/04 00:39:18;;;;;;;4.63;0.68;;;;;;;5.19;100.00;102588.16;6201818;28;20057;-73
2023/02/04 00:42:19;;;;;;;10.63;0.60;;;;;;;5.16;100.00;102595.97;6201633;28;20050;-73
2023/02/04 00:45:21;;;;;;;4.38;0.98;;;;;;;4.94;100.00;102606.41;6201893;28;20329;-73
2023/02/04 00:48:23;;;;;;;5.25;0.55;;;;;;;4.99;100.00;102602.06;6202763;28;20099;-73
2023/02/04 00:51:24;;;;;;;8.32;0.47;;;;;;;4.95;100.00;102599.44;6201952;28;20057;-73
2023/02/04 00:54:26;;;;;;;3.60;0.85;;;;;;;4.81;100.00;102607.25;6201544;28;20046;-73
2023/02/04 00:57:27;;;;;;;4.70;0.40;;;;;;;4.79;100.00;102620.28;6201656;28;20286;-73
2023/02/04 01:00:30;;;;;;;2.72;0.63;;;;;;;4.74;100.00;102629.84;6201327;28;20057;-70
2023/02/04 01:03:31;;;;;;;4.88;0.98;;;;;;;4.69;100.00;102636.78;6201964;28;20437;-72
2023/02/04 01:06:33;;;;;;;4.40;0.50;;;;;;;4.67;100.00;102622.88;6201419;28;20059;-73
2023/02/04 01:09:34;;;;;;;1.42;0.73;;;;;;;4.56;100.00;102640.22;6201619;28;20061;-73
2023/02/04 01:12:36;;;;;;;2.60;0.52;;;;;;;4.58;100.00;102638.47;6201501;28;20058;-73
2023/02/04 01:15:39;;;;;;;4.28;0.70;;;;;;;4.49;100.00;102644.53;6201819;28;20050;-73
2023/02/04 01:18:41;;;;;;;2.70;0.47;;;;;;;4.47;100.00;102655.81;6202421;28;20058;-73
2023/02/04 01:21:42;;;;;;;1.38;0.55;;;;;;;4.52;100.00;102661.91;6201471;28;20057;-73
2023/02/04 01:24:44;;;;;;;0.10;0.10;;;;;;;4.47;100.00;102666.25;6201519;28;20057;-73
2023/02/04 01:27:45;;;;;;;4.28;0.70;;;;;;;4.49;100.00;102682.72;6200832;28;20053;-73
2023/02/04 01:30:48;;;;;;;0.90;0.50;;;;;;;4.47;100.00;102692.28;6201561;28;20046;-73
2023/02/04 01:33:49;;;;;;;4.55;0.30;;;;;;;4.51;100.00;102697.50;6201077;28;20455;-73
2023/02/04 01:36:51;;;;;;;2.03;0.57;;;;;;;4.48;100.00;102700.06;6201603;28;20432;-73
2023/02/04 01:39:52;;;;;;;1.95;0.60;;;;;;;4.45;100.00;102704.41;6200763;28;20050;-73
2023/02/04 01:42:54;;;;;;;3.75;0.52;;;;;;;4.27;100.00;102713.00;6201563;28;20061;-70
2023/02/04 01:45:57;;;;;;;1.77;0.65;;;;;;;4.30;100.00;102713.88;6201054;28;20053;-72
2023/02/04 01:48:58;;;;;;;0.55;0.30;;;;;;;4.27;100.00;102716.50;6207556;28;20080;-73
2023/02/04 01:52:00;;;;;;;2.55;0.90;;;;;;;4.22;100.00;102720.78;6229955;28;20054;-73
2023/02/04 01:55:01;;;;;;;1.73;0.88;;;;;;;4.24;100.00;102716.47;6230377;28;20053;-73
2023/02/04 01:58:03;;;;;;;5.57;0.73;;;;;;;4.24;100.00;102729.50;6229565;28;20056;-72
2023/02/04 02:01:13;;;;;;;4.95;0.68;;;;;;;4.27;100.00;102739.03;6230245;28;20105;-73
2023/02/04 02:04:16;;;;;;;3.63;0.40;;;;;;;4.28;100.00;102752.06;6229921;28;20053;-73
2023/02/04 02:07:17;;;;;;;1.40;0.50;;;;;;;4.29;100.00;102763.34;6229724;28;20049;-73
2023/02/04 02:10:20;;;;;;;4.85;0.85;;;;;;;4.31;100.00;102767.72;6229448;28;20053;-73
2023/02/04 02:13:21;;;;;;;1.35;0.32;;;;;;;4.30;100.00;102773.75;6229543;28;20057;-73
2023/02/04 02:16:24;;;;;;;1.63;0.50;;;;;;;4.29;100.00;102779.81;6229737;28;20045;-72
2023/02/04 02:19:30;;;;;;;1.45;0.65;;;;;;;4.26;100.00;102781.53;6226225;28;20466;-72
2023/02/04 02:22:35;;;;;;;3.15;0.73;;;;;;;4.26;100.00;102790.22;6218116;28;20053;-73
2023/02/04 02:25:38;;;;;;;2.08;0.77;;;;;;;4.28;100.00;102801.50;6228994;28;20387;-72
2023/02/04 02:28:39;;;;;;;1.05;0.43;;;;;;;4.29;100.00;102794.56;6229261;28;20050;-72
2023/02/04 02:31:41;;;;;;;1.10;0.45;;;;;;;4.15;100.00;102806.63;6229003;28;20049;-72
2023/02/04 02:34:44;;;;;;;0.85;0.35;;;;;;;4.23;100.00;102812.75;6229207;28;20058;-70
2023/02/04 02:37:45;;;;;;;1.50;0.30;;;;;;;4.20;100.00;102817.94;6228734;28;20050;-70
2023/02/04 02:40:49;;;;;;;3.50;0.47;;;;;;;4.11;100.00;102830.88;6228821;28;20050;-71
2023/02/04 02:43:51;;;;;;;4.90;0.55;;;;;;;4.03;100.00;102841.22;6228886;28;20049;-70
2023/02/04 02:46:53;;;;;;;11.18;1.55;;;;;;;4.03;100.00;102849.03;6228815;28;20050;-70
2023/02/04 02:49:54;;;;;;;3.85;0.90;;;;;;;3.94;100.00;102855.03;6226555;28;20395;-70
2023/02/04 02:52:56;;;;;;;9.93;1.10;;;;;;;3.85;100.00;102867.97;6228696;28;20348;-71
2023/02/04 02:56:00;;;;;;;2.20;0.40;;;;;;;3.87;100.00;102860.19;6228623;28;20053;-70
2023/02/04 02:59:13;;;;;;;9.32;0.88;;;;;;;3.94;100.00;102859.38;6227995;28;20203;-71
2023/02/04 03:02:17;;;;;;;1.73;0.68;;;;;;;4.01;100.00;102871.56;6228690;28;20057;-72
2023/02/04 03:05:19;;;;;;;2.67;0.88;;;;;;;4.01;100.00;102876.78;6228321;28;20045;-73
2023/02/04 03:08:20;;;;;;;4.65;0.77;;;;;;;4.03;100.00;102901.06;6228276;28;20053;-72
2023/02/04 03:11:25;;;;;;;1.50;0.40;;;;;;;4.03;100.00;102896.72;6228036;28;20046;-70
2023/02/04 03:14:27;;;;;;;2.67;0.35;;;;;;;4.02;100.00;102900.19;6228464;28;20041;-70
2023/02/04 03:17:29;;;;;;;0.95;0.30;;;;;;;4.00;100.00;102906.25;6227899;28;20042;-71
2023/02/04 03:20:31;;;;;;;1.65;0.40;;;;;;;3.97;100.00;102908.81;6213660;28;20050;-70
2023/02/04 03:23:34;;;;;;;0.52;0.40;;;;;;;3.95;100.00;102907.91;6203800;28;20042;-72
2023/02/04 03:26:37;;;;;;;1.05;0.30;;;;;;;4.00;100.00;102914.94;6203537;28;20053;-70
2023/02/04 03:29:42;;;;;;;1.35;0.45;;;;;;;4.05;100.00;102921.03;6207543;28;20053;-70
2023/02/04 03:32:44;;;;;;;0.50;0.50;;;;;;;3.85;100.00;102919.97;6226541;28;20053;-70
2023/02/04 03:35:45;;;;;;;1.75;0.50;;;;;;;3.82;100.00;102930.38;6227489;28;20050;-70
2023/02/04 03:38:47;;;;;;;0.50;0.30;;;;;;;3.75;100.00;102936.34;6227595;28;20054;-70
2023/02/04 03:41:49;;;;;;;1.60;0.57;;;;;;;3.73;100.00;102940.69;6227137;28;20058;-70
2023/02/04 03:44:51;;;;;;;1.05;0.55;;;;;;;3.64;100.00;102953.59;6227779;28;20446;-70
2023/02/04 03:47:52;;;;;;;1.77;0.43;;;;;;;3.58;100.00;102941.38;6227087;28;20634;-70
2023/02/04 03:50:53;;;;;;;3.30;1.30;;;;;;;3.47;100.00;102946.47;6227492;28;20054;-70
2023/02/04 03:53:55;;;;;;;3.72;1.75;;;;;;;3.44;100.00;102946.41;6227349;28;20057;-70
2023/02/04 03:56:57;;;;;;;1.48;1.10;;;;;;;3.42;100.00;102947.25;6227139;28;20408;-70
2023/02/04 03:59:59;;;;;;;1.27;1.00;;;;;;;3.37;100.00;102951.53;6226889;28;20046;-72
2023/02/04 04:03:00;;;;;;;4.80;1.20;;;;;;;3.39;100.00;102958.47;6225374;28;20050;-70
2023/02/04 04:06:04;;;;;;;6.53;1.05;;;;;;;3.27;100.00;102961.81;6227047;28;20344;-70
2023/02/04 04:09:05;;;;;;;0.63;0.55;;;;;;;3.26;100.00;102973.03;6226555;28;20343;-70
2023/02/04 04:12:08;;;;;;;1.08;0.85;;;;;;;3.25;100.00;102983.44;6226457;28;20049;-70
2023/02/04 04:15:09;;;;;;;0.98;0.70;;;;;;;3.27;100.00;102986.91;6227127;28;20061;-70
2023/02/04 04:18:11;;;;;;;1.08;0.60;;;;;;;3.23;100.00;102987.75;6226786;28;20479;-70
2023/02/04 04:21:12;;;;;;;4.03;0.70;;;;;;;3.16;100.00;102998.91;6226600;28;20054;-70
2023/02/04 04:24:13;;;;;;;2.58;0.50;;;;;;;3.12;100.00;103005.75;6226951;28;20459;-70
2023/02/04 04:27:16;;;;;;;0.52;0.52;;;;;;;3.04;100.00;103013.47;6226519;28;20053;-70
2023/02/04 04:30:18;;;;;;;0.90;0.60;;;;;;;3.03;100.00;103021.22;6226610;28;20077;-70
2023/02/04 04:33:19;;;;;;;0.65;0.60;;;;;;;3.03;100.00;103031.59;6224977;28;20042;-70
2023/02/04 04:36:20;;;;;;;2.63;0.75;;;;;;;2.99;100.00;103035.88;6226151;28;20045;-70
2023/02/04 04:39:22;;;;;;;1.77;0.60;;;;;;;2.92;100.00;103033.19;6226230;28;20049;-70
2023/02/04 04:42:24;;;;;;;1.83;0.60;;;;;;;2.82;100.00;103029.59;6226097;28;20436;-70
2023/02/04 04:45:26;;;;;;;0.55;0.50;;;;;;;2.81;100.00;103033.00;6226640;28;20069;-70
2023/02/04 04:48:27;;;;;;;1.30;0.50;;;;;;;2.77;100.00;103047.69;6225903;28;20344;-70
2023/02/04 04:51:30;;;;;;;7.82;0.85;;;;;;;2.74;100.00;103052.81;6226402;28;20050;-70
2023/02/04 04:54:32;;;;;;;0.70;0.60;;;;;;;2.73;100.00;103061.47;6226089;28;20049;-70
2023/02/04 04:57:34;;;;;;;2.25;0.80;;;;;;;2.70;100.00;103063.13;6226117;28;20046;-70
2023/02/04 05:00:35;;;;;;;1.65;0.75;;;;;;;2.62;100.00;103067.31;6226003;28;20054;-70
2023/02/04 05:03:37;;;;;;;2.03;0.70;;;;;;;2.61;100.00;103070.75;6224706;28;20432;-70
2023/02/04 05:06:38;;;;;;;1.00;0.52;;;;;;;2.57;100.00;103074.16;6226071;28;20061;-70
2023/02/04 05:09:39;;;;;;;1.95;0.88;;;;;;;2.55;100.00;103094.91;6225725;28;20436;-70
2023/02/04 05:12:42;;;;;;;5.22;0.82;;;;;;;2.49;100.00;103093.03;6225975;28;20053;-70
2023/02/04 05:15:43;;;;;;;6.03;0.57;;;;;;;2.38;100.00;103091.13;6225948;28;20339;-70
2023/02/04 05:18:45;;;;;;;0.55;0.55;;;;;;;2.36;100.00;103087.59;6225751;28;20050;-70
2023/02/04 05:21:46;;;;;;;2.80;0.55;;;;;;;2.35;100.00;103101.44;6226575;28;20061;-70
2023/02/04 05:24:47;;;;;;;2.33;1.02;;;;;;;2.29;100.00;103097.88;6230903;28;20061;-70
2023/02/04 05:27:50;;;;;;;0.30;0.30;;;;;;;2.27;100.00;103109.97;6230356;28;20049;-70
2023/02/04 05:30:51;;;;;;;5.88;0.80;;;;;;;2.16;100.00;103115.78;6230531;28;20355;-73
2023/02/04 05:33:53;;;;;;;0.70;0.65;;;;;;;2.16;100.00;103119.25;6219128;28;20054;-70
2023/02/04 05:36:54;;;;;;;1.20;0.68;;;;;;;2.13;100.00;103121.75;6206061;28;20061;-70
2023/02/04 05:39:56;;;;;;;2.17;0.90;;;;;;;2.14;100.00;103126.13;6205624;28;20054;-70
2023/02/04 05:42:58;;;;;;;1.17;0.80;;;;;;;2.19;100.00;103128.81;6206370;28;20061;-70
2023/02/04 05:45:59;;;;;;;1.65;0.85;;;;;;;2.14;100.00;103118.34;6206056;28;20050;-70
2023/02/04 05:49:01;;;;;;;1.40;0.63;;;;;;;2.14;100.00;103133.91;6205510;28;20042;-70
2023/02/04 05:52:02;;;;;;;0.93;0.43;;;;;;;2.12;100.00;103130.41;6205804;28;20479;-70
2023/02/04 05:55:04;;;;;;;0.70;0.70;;;;;;;2.14;100.00;103135.63;6205726;28;20561;-70
2023/02/04 05:58:07;;;;;;;1.23;0.57;;;;;;;2.13;100.00;103142.50;6205514;28;20055;-70
2023/02/04 06:01:09;;;;;;;1.17;0.70;;;;;;;2.12;100.00;103143.38;6205625;28;20046;-70
2023/02/04 06:04:10;;;;;;;0.63;0.60;;;;;;;2.13;100.00;103147.69;6206855;28;20057;-70
2023/02/04 06:07:12;;;;;;;1.55;1.00;;;;;;;2.12;100.00;103161.53;6205492;28;20050;-71
2023/02/04 06:10:13;;;;;;;1.27;0.82;;;;;;;2.10;100.00;103162.34;6205160;28;20449;-70
2023/02/04 06:13:16;;;;;;;1.15;0.75;;;;;;;1.97;100.00;103171.59;6205558;28;20065;-70
2023/02/04 06:16:18;;;;;;;0.93;0.57;;;;;;;1.96;100.00;103172.44;6222743;28;20329;-70
2023/02/04 06:19:20;;;;;;;2.45;0.70;;;;;;;1.89;100.00;103173.13;6240884;28;20045;-71
2023/02/04 06:22:23;;;;;;;1.38;0.63;;;;;;;1.89;100.00;103174.00;6239878;28;20053;-70
2023/02/04 06:25:24;;;;;;;1.27;0.77;;;;;;;1.91;100.00;103174.06;6248482;28;20060;-70
2023/02/04 06:28:27;;;;;;;3.22;0.82;;;;;;;1.92;100.00;103181.00;6253645;28;20056;-70
2023/02/04 06:31:28;;;;;;;1.00;0.82;;;;;;;1.96;100.00;103196.63;6237056;28;20053;-70
2023/02/04 06:34:29;;;;;;;0.75;0.70;;;;;;;1.99;100.00;103203.59;6227854;28;20060;-70
2023/02/04 06:37:31;;;;;;;0.57;0.57;;;;;;;1.98;100.00;103213.09;6228753;28;20057;-71
2023/02/04 06:40:32;;;;;;;4.20;1.35;;;;;;;1.87;100.00;103204.22;6233983;28;20057;-71
2023/02/04 06:43:35;;;;;;;1.42;0.70;;;;;;;1.88;100.00;103220.66;6230553;28;20427;-70
2023/02/04 06:46:36;;;;;;;1.30;1.10;;;;;;;1.87;100.00;103229.28;6216491;28;20407;-70
2023/02/04 06:49:38;;;;;;;0.60;0.60;;;;;;;1.76;100.00;103222.09;6213908;28;20046;-71
2023/02/04 06:52:39;;;;;;;4.55;0.93;;;;;;;1.81;100.00;103218.75;6218814;28;20351;-71
2023/02/04 06:55:40;;;;;;;1.92;0.98;;;;;;;1.82;100.00;103217.91;6238463;28;20046;-71
2023/02/04 06:58:43;;;;;;;2.92;1.80;;;;;;;1.84;100.00;103224.00;6239933;28;20442;-71
2023/02/04 07:01:44;;;;;;;1.48;0.77;;;;;;;1.87;100.00;103244.81;6238734;28;20060;-70
2023/02/04 07:04:46;;;;;;;6.28;1.23;;;;;;;1.82;100.00;103236.03;6237853;28;20064;-71
2023/02/04 07:07:47;;;;;;;1.17;1.08;;;;;;;1.83;100.00;103248.19;6238733;28;20057;-71
2023/02/04 07:10:48;;;;;;;2.47;0.98;;;;;;;1.84;100.00;103256.00;6239051;28;20053;-71
2023/02/04 07:13:51;;;;;;;1.75;0.88;;;;;;;1.81;100.00;103261.09;6239435;28;20050;-71
2023/02/04 07:16:52;;;;;;;1.38;0.90;;;;;;;1.70;100.00;103257.38;6238124;28;20042;-71
2023/02/04 07:19:53;;;;;;;2.97;0.95;;;;;;;1.61;100.00;103257.16;6239410;28;20053;-71
2023/02/04 07:22:55;;;;;;;1.52;0.57;;;;;;;1.58;100.00;103275.22;6237847;28;20049;-71
2023/02/04 07:25:58;;;;;;;1.23;0.70;;;;;;;1.58;100.00;103278.69;6239919;28;20054;-71
2023/02/04 07:29:00;;;;;;;0.85;0.65;;;;;;;1.62;100.00;103282.25;6234632;28;20042;-71
2023/02/04 07:32:02;;;;;;;1.02;0.57;;;;;;;1.50;100.00;103278.53;6239372;28;20049;-71
2023/02/04 07:35:03;;;;;;;1.10;0.70;;;;;;;1.55;100.00;103290.72;6237034;28;20080;-71
2023/02/04 07:38:05;;;;;;;1.48;0.70;;;;;;;1.47;100.00;103298.28;6238304;28;20060;-70
2023/02/04 07:41:06;;;;;;;1.55;0.65;;;;;;;1.49;100.00;103294.00;6237807;28;20051;-71
2023/02/04 07:44:09;;;;;;;4.22;0.88;;;;;;;1.49;100.00;103304.38;6233916;28;20052;-70
2023/02/04 07:47:11;;;;;;;1.08;0.77;;;;;;;1.48;100.00;103310.41;6231455;28;20053;-71
2023/02/04 07:50:13;;;;;;;1.63;0.80;;;;;;;1.43;100.00;103318.06;6232861;28;20081;-70
2023/02/04 07:53:14;;;;;;;1.88;1.20;;;;;;;1.33;100.00;103310.88;6237053;28;20048;-71
2023/02/04 07:56:16;;;;;;;1.55;0.95;;;;;;;1.36;100.00;103317.84;6239101;28;20057;-71
2023/02/04 07:59:18;;;;;;;4.18;1.38;;;;;;;1.40;100.00;103311.91;6236389;28;20053;-71
2023/02/04 08:02:20;;;;;;;1.88;1.20;;;;;;;1.39;100.00;103315.34;6234265;28;20053;-71
2023/02/04 08:05:21;;;;;;;1.58;1.13;;;;;;;1.32;100.00;103313.41;6236507;28;20054;-71
2023/02/04 08:08:22;;;;;;;4.88;1.80;;;;;;;1.38;100.00;103318.78;6237126;28;20711;-71
2023/02/04 08:11:25;;;;;;;6.05;2.35;;;;;;;1.45;100.00;103323.25;6238062;28;20068;-70
2023/02/04 08:14:28;;;;;;;2.70;1.30;;;;;;;1.52;100.00;103330.38;6231647;28;20053;-71
2023/02/04 08:17:30;;;;;;;2.97;1.17;;;;;;;1.49;100.00;103328.56;6230843;28;20043;-70
2023/02/04 08:20:31;;;;;;;2.90;1.25;;;;;;;1.58;100.00;103334.81;6236961;28;20049;-71
2023/02/04 08:23:33;;;;;;;3.20;1.48;;;;;;;1.61;100.00;103340.97;6237809;28;20046;-70
2023/02/04 08:26:34;;;;;;;2.75;1.40;;;;;;;1.67;100.00;103340.25;6233447;28;20077;-71
2023/02/04 08:29:37;;;;;;;3.50;1.38;;;;;;;1.62;100.00;103340.13;6221600;28;20053;-71
2023/02/04 08:32:39;;;;;;;6.07;1.70;;;;;;;1.63;100.00;103341.88;6226299;28;20057;-71
2023/02/04 08:35:40;;;;;;;5.18;1.55;;;;;;;1.64;100.00;103340.19;6225561;28;20129;-71
2023/02/04 08:38:43;;;;;;;4.82;1.65;;;;;;;1.80;100.00;103339.72;6224453;28;20065;-71
2023/02/04 08:41:44;;;;;;;2.13;1.55;;;;;;;1.86;100.00;103355.41;6227082;28;20056;-71
2023/02/04 08:44:47;;;;;;;1.23;1.00;;;;;;;1.94;100.00;103363.38;6226121;28;20045;-71
2023/02/04 08:47:48;;;;;;;1.80;1.10;;;;;;;1.95;100.00;103357.34;6225928;28;20048;-70
2023/02/04 08:50:50;;;;;;;1.02;0.90;;;;;;;2.02;100.00;103370.53;6226195;28;20054;-71
2023/02/04 08:53:51;;;;;;;4.47;2.03;;;;;;;2.05;100.00;103379.22;6226448;28;20049;-71
2023/02/04 08:56:52;;;;;;;1.80;1.30;;;;;;;2.07;100.00;103375.81;6225596;28;20049;-71
2023/02/04 08:59:55;;;;;;;2.85;1.30;;;;;;;2.13;100.00;103388.91;6226103;28;20053;-70
2023/02/04 09:02:56;;;;;;;3.10;1.30;;;;;;;2.20;100.00;103380.47;6225841;28;20184;-71
2023/02/04 09:05:57;;;;;;;1.75;1.10;;;;;;;2.28;100.00;103389.31;6224342;28;20053;-71
2023/02/04 09:08:59;;;;;;;0.98;0.85;;;;;;;2.35;100.00;103390.31;6223228;28;20057;-71
2023/02/04 09:12:00;;;;;;;1.40;1.05;;;;;;;2.42;100.00;103397.41;6224880;28;20050;-70
2023/02/04 09:15:04;;;;;;;1.55;1.20;;;;;;;2.48;100.00;103407.91;6225632;28;20053;-70
2023/02/04 09:18:13;;;;;;;1.45;0.85;;;;;;;2.53;100.00;103408.91;6225587;28;20176;-71
2023/02/04 09:21:14;;;;;;;3.05;1.05;;;;;;;2.59;100.00;103410.78;6225672;28;20061;-71
2023/02/04 09:24:16;;;;;;;2.42;1.20;;;;;;;2.60;100.00;103412.53;6225455;28;20046;-71
2023/02/04 09:27:18;;;;;;;0.93;0.85;;;;;;;2.67;100.00;103400.53;6218436;28;20058;-71
2023/02/04 09:30:21;;;;;;;2.25;1.20;;;;;;;2.73;100.00;103417.16;6225831;28;20065;-71
2023/02/04 09:33:22;;;;;;;0.80;0.80;;;;;;;2.82;100.00;103415.59;6225688;28;20058;-70
2023/02/04 09:36:27;;;;;;;2.13;1.38;;;;;;;2.82;100.00;103419.09;6204962;28;20058;-70
2023/02/04 09:39:28;;;;;;;1.30;0.90;;;;;;;2.97;100.00;103434.09;6199876;28;20097;-70
2023/02/04 09:42:30;;;;;;;2.45;1.13;;;;;;;3.00;100.00;103439.38;6201168;28;20444;-71
2023/02/04 09:45:35;;;;;;;2.55;0.90;;;;;;;3.07;100.00;103442.97;6213346;28;20050;-71
2023/02/04 09:48:37;;;;;;;1.45;1.00;;;;;;;3.08;100.00;103443.00;6224336;28;20042;-71
2023/02/04 09:51:39;;;;;;;1.23;1.10;;;;;;;3.16;100.00;103437.97;6225312;28;20348;-71
2023/02/04 09:54:40;;;;;;;1.95;1.30;;;;;;;3.16;100.00;103441.44;6224505;28;20053;-70
2023/02/04 09:57:41;;;;;;;1.80;0.93;;;;;;;3.20;100.00;103457.97;6225020;28;20053;-70
2023/02/04 10:00:45;;;;;;;1.00;0.80;;;;;;;3.26;100.00;103463.28;6222244;28;20056;-70
2023/02/04 10:03:50;;;;;;;1.00;0.77;;;;;;;3.25;100.00;103462.41;6223789;28;20046;-70
2023/02/04 10:06:51;;;;;;;1.80;1.05;;;;;;;3.34;100.00;103448.75;6225134;28;20064;-70
2023/02/04 10:09:56;;;;;;;3.70;1.63;;;;;;;3.35;100.00;103454.81;6227205;28;20050;-69
2023/02/04 10:13:00;;;;;;;9.93;2.88;;;;;;;3.40;100.00;103456.66;6229731;28;20054;-70
2023/02/04 10:16:09;;;;;;;0.88;0.82;;;;;;;3.37;100.00;103446.22;6229407;28;20061;-70
2023/02/04 10:19:12;;;;;;;;;;;;;;;3.48;100.00;103446.41;6229767;28;20052;-70
2023/02/04 10:22:19;;;;;;;1.67;0.93;;;;;;;3.43;100.00;103463.66;6229363;28;19921;-70
2023/02/04 10:25:22;;;;;;;5.53;1.25;;;;;;;3.48;100.00;103460.28;6229453;28;20050;-69
2023/02/04 10:28:33;;;;;;;6.40;1.02;;;;;;;3.55;100.00;103462.16;6228902;28;20081;-70
2023/02/04 10:31:37;;;;;;;1.40;0.80;;;;;;;3.64;100.00;103463.19;6229494;28;20431;-70
2023/02/04 10:34:39;;;;;;;1.25;0.80;;;;;;;3.72;100.00;103469.41;6227590;28;20184;-70
2023/02/04 10:37:40;;;;;;;2.10;0.80;;;;;;;3.85;100.00;103473.97;6228835;28;20049;-70
2023/02/04 10:40:42;;;;;;;1.55;1.02;;;;;;;3.91;100.00;103471.53;6220035;28;20046;-70
2023/02/04 10:43:43;;;;;;;1.83;1.10;;;;;;;3.96;100.00;103469.00;6228693;28;20073;-70
2023/02/04 10:46:47;;;;;;;1.58;0.88;;;;;;;3.94;100.00;103466.34;6228380;28;20145;-69
2023/02/04 10:49:53;;;;;;;1.52;1.10;;;;;;;3.94;100.00;103468.06;6227656;28;20132;-69
2023/02/04 10:54:28;;;;;;;1.05;0.93;;;;;;;3.93;100.00;103459.41;6228354;28;20050;-80
2023/02/04 10:56:21;;;;;;;3.05;1.10;;;;;;;3.99;100.00;103472.50;6223366;28;20463;-72
2023/02/04 10:59:25;;;;;;;1.17;1.08;;;;;;;3.97;100.00;103474.22;6226261;28;20045;-70
2023/02/04 11:02:37;;;;;;;2.58;0.68;;;;;;;4.00;100.00;103476.00;6216546;28;20058;-70
2023/02/04 11:05:38;;;;;;;1.48;1.10;;;;;;;4.05;100.00;103467.44;6221453;28;20080;-70
2023/02/04 11:08:40;;;;;;;1.15;0.88;;;;;;;4.02;100.00;103469.97;6227947;28;20042;-70
2023/02/04 11:11:46;;;;;;;0.95;0.70;;;;;;;4.03;100.00;103470.84;6227983;28;20050;-70
2023/02/04 11:14:55;;;;;;;2.00;0.93;;;;;;;4.10;100.00;103477.06;6228075;28;20161;-70
2023/02/04 11:18:04;;;;;;;0.60;0.60;;;;;;;4.20;100.00;103476.34;6227244;28;20049;-70
2023/02/04 11:21:14;;;;;;;0.80;0.60;;;;;;;4.31;100.00;103478.28;6228116;28;20050;-70
2023/02/04 11:24:25;;;;;;;4.30;1.50;;;;;;;4.50;100.00;103476.00;6228196;28;20050;-70
2023/02/04 11:27:38;;;;;;;1.50;0.98;;;;;;;4.55;100.00;103487.34;6228003;28;20355;-70
2023/02/04 11:30:40;;;;;;;1.17;0.88;;;;;;;4.66;100.00;103474.47;6227878;28;20058;-70
2023/02/04 11:33:42;;;;;;;2.40;1.05;;;;;;;4.67;100.00;103478.84;6228102;28;20054;-70
2023/02/04 11:36:55;;;;;;;3.70;1.17;;;;;;;4.61;100.00;103476.16;6204952;28;20050;-69
2023/02/04 11:39:59;;;;;;;1.40;0.93;;;;;;;4.56;100.00;103478.69;6203018;28;20352;-70
2023/02/04 11:43:04;;;;;;;1.45;0.82;;;;;;;4.44;100.00;103473.28;6203517;28;20437;-70
2023/02/04 11:46:12;;;;;;;1.27;0.80;;;;;;;4.35;100.00;103479.19;6203494;28;20046;-70
2023/02/04 11:49:18;;;;;;;1.13;0.70;;;;;;;4.27;100.00;103481.69;6202945;28;20046;-70
2023/02/04 11:52:21;;;;;;;1.85;0.40;;;;;;;4.23;100.00;103484.22;6203363;28;20054;-70
2023/02/04 11:55:22;;;;;;;1.00;0.70;;;;;;;4.18;100.00;103481.53;6203043;28;20356;-70
2023/02/04 11:58:24;;;;;;;1.02;0.68;;;;;;;4.27;100.00;103492.09;6206460;28;20046;-70
2023/02/04 12:01:31;;;;;;;3.25;1.20;;;;;;;4.25;100.00;103485.09;6217539;28;20479;-70
2023/02/04 12:04:34;;;;;;;3.92;0.98;;;;;;;4.24;100.00;103484.25;6220469;28;20061;-75
2023/02/04 12:07:35;;;;;;;3.47;1.10;;;;;;;4.35;100.00;103484.41;6222960;28;20054;-70
2023/02/04 12:10:37;;;;;;;4.40;1.13;;;;;;;4.31;100.00;103488.72;6216140;28;20399;-70
2023/02/04 12:13:48;;;;;;;1.70;0.73;;;;;;;4.56;100.00;103492.56;6224314;28;20061;-70
2023/02/04 12:16:51;;;;;;;1.05;0.85;;;;;;;4.97;100.00;103481.91;6223837;28;20058;-70
2023/02/04 12:19:53;;;;;;;0.95;0.60;;;;;;;5.19;100.00;103493.50;6226068;28;20112;-70
2023/02/04 12:22:55;;;;;;;1.17;0.85;;;;;;;5.10;100.00;103498.59;6218826;28;20046;-70
2023/02/04 12:25:56;;;;;;;4.35;0.80;;;;;;;5.00;100.00;103504.53;6220819;28;20375;-70
2023/02/04 12:29:01;;;;;;;1.58;0.80;;;;;;;4.90;100.00;103500.88;6224435;28;20038;-70
2023/02/04 12:32:03;;;;;;;0.90;0.73;;;;;;;4.86;100.00;103495.59;6225726;28;20136;-70
2023/02/04 12:35:06;;;;;;;0.82;0.60;;;;;;;4.84;100.00;103498.19;6223995;28;20057;-73
2023/02/04 12:38:08;;;;;;;2.67;1.25;;;;;;;4.90;100.00;103508.69;6221660;28;20050;-70
2023/02/04 12:41:10;;;;;;;2.00;0.73;;;;;;;4.90;100.00;103507.81;6226175;28;20081;-70
2023/02/04 12:44:11;;;;;;;1.63;0.80;;;;;;;4.93;100.00;103505.28;6225830;28;20056;-70
2023/02/04 12:47:12;;;;;;;0.85;0.75;;;;;;;5.02;100.00;103508.03;6221897;28;20053;-70
2023/02/04 12:50:21;;;;;;;3.28;0.60;;;;;;;5.03;100.00;103502.81;6221133;28;20070;-70
2023/02/04 12:53:22;;;;;;;0.70;0.60;;;;;;;5.05;100.00;103508.06;6220538;28;20444;-70
2023/02/04 12:56:23;;;;;;;1.15;0.98;;;;;;;5.10;100.00;103503.78;6226005;28;20054;-70
2023/02/04 12:59:25;;;;;;;1.75;0.82;;;;;;;5.02;100.00;103500.19;6224200;28;20352;-70
2023/02/04 13:02:26;;;;;;;6.55;0.68;;;;;;;4.92;100.00;103506.13;6222990;28;20050;-70
2023/02/04 13:05:29;;;;;;;1.77;1.00;;;;;;;4.98;100.00;103511.44;6222354;28;20042;-70
2023/02/04 13:08:30;;;;;;;0.73;0.73;;;;;;;4.92;100.00;103506.13;6218177;28;20054;-70
2023/02/04 13:11:32;;;;;;;1.33;0.85;;;;;;;4.90;100.00;103506.09;6223282;28;20046;-71
2023/02/04 13:14:33;;;;;;;1.40;0.80;;;;;;;4.97;100.00;103510.56;6225748;28;20057;-73
2023/02/04 13:17:35;;;;;;;4.05;0.70;;;;;;;4.88;100.00;103510.44;6225155;28;20073;-70
2023/02/04 13:20:37;;;;;;;1.50;0.82;;;;;;;4.94;100.00;103504.41;6225152;28;20448;-71
2023/02/04 13:23:39;;;;;;;0.80;0.68;;;;;;;4.91;100.00;103507.88;6209609;28;20046;-71
2023/02/04 13:26:40;;;;;;;0.88;0.70;;;;;;;4.94;100.00;103507.03;6222383;28;20440;-71
2023/02/04 13:29:41;;;;;;;1.60;0.77;;;;;;;4.94;100.00;103499.22;6220260;28;20046;-70
2023/02/04 13:32:43;;;;;;;0.60;0.60;;;;;;;4.82;100.00;103506.00;6225620;28;20058;-70
2023/02/04 13:35:46;;;;;;;0.73;0.70;;;;;;;4.74;100.00;103510.22;6202679;28;20498;-70
2023/02/04 13:38:47;;;;;;;2.25;0.70;;;;;;;4.72;100.00;103506.69;6200595;28;20049;-70
2023/02/04 13:41:48;;;;;;;0.88;0.68;;;;;;;4.74;100.00;103512.81;6225087;28;20057;-70
2023/02/04 13:44:49;;;;;;;1.42;0.82;;;;;;;4.71;100.00;103512.75;6229746;28;20053;-70
2023/02/04 13:47:51;;;;;;;4.55;0.52;;;;;;;4.77;100.00;103518.09;6228669;28;20061;-70
2023/02/04 13:50:53;;;;;;;0.77;0.68;;;;;;;4.67;100.00;103508.34;6229911;28;20053;-70
2023/02/04 13:53:55;;;;;;;0.88;0.55;;;;;;;4.71;100.00;103507.56;6230216;28;20054;-70
2023/02/04 13:56:56;;;;;;;1.90;1.05;;;;;;;4.83;100.00;103510.34;6227253;28;20451;-70
2023/02/04 13:59:57;;;;;;;1.02;0.80;;;;;;;4.93;100.00;103506.16;6233434;28;20037;-71
2023/02/04 14:02:59;;;;;;;2.42;0.80;;;;;;;5.05;100.00;103508.94;6236104;28;20068;-70
2023/02/04 14:06:01;;;;;;;1.02;0.60;;;;;;;4.97;100.00;103514.91;6237008;28;20368;-70
2023/02/04 14:09:03;;;;;;;1.05;0.82;;;;;;;5.01;100.00;103524.50;6226057;28;20042;-70